createdAt,value
2022-08-18T00:00:07.424Z,-40.00
2022-08-18T00:01:08.478Z,-40.00
2022-08-18T00:02:07.576Z,-40.00
2022-08-18T00:03:19.122Z,-40.00
2022-08-18T00:04:28.729Z,-40.00
2022-08-18T00:05:07.606Z,-40.00
2022-08-18T00:06:07.642Z,-40.00
2022-08-18T00:07:07.681Z,-40.00
2022-08-18T00:08:07.711Z,-40.00
2022-08-18T00:09:07.760Z,-40.00
2022-08-18T00:10:07.788Z,-40.00
2022-08-18T00:11:07.828Z,-40.00
2022-08-18T00:12:07.865Z,-40.00
2022-08-18T00:13:07.901Z,-40.00
2022-08-18T00:14:07.944Z,-40.00
2022-08-18T00:15:07.983Z,-40.00
2022-08-18T00:16:08.023Z,-40.00
2022-08-18T00:17:08.066Z,-40.00
2022-08-18T00:18:08.106Z,-40.00
2022-08-18T00:19:09.471Z,-40.00
2022-08-18T00:20:08.184Z,-40.00
2022-08-18T00:21:08.223Z,-40.00
2022-08-18T00:22:08.271Z,-40.00
2022-08-18T00:23:08.314Z,-40.00
2022-08-18T00:24:08.358Z,-40.00
2022-08-18T00:25:08.403Z,-40.00
2022-08-18T00:26:08.437Z,-40.00
2022-08-18T00:27:08.473Z,-40.00
2022-08-18T00:28:08.512Z,-40.00
2022-08-18T00:29:08.553Z,-40.00
2022-08-18T00:30:08.587Z,-40.00
2022-08-18T00:31:08.623Z,-40.00
2022-08-18T00:32:08.658Z,-40.00
2022-08-18T00:33:08.690Z,-40.00
2022-08-18T00:34:08.725Z,-40.00
2022-08-18T00:35:08.764Z,-40.00
2022-08-18T00:36:08.800Z,-40.00
2022-08-18T00:37:08.842Z,-40.00
2022-08-18T00:38:08.879Z,-40.00
2022-08-18T00:39:09.937Z,-40.00
2022-08-18T00:40:09.016Z,-40.00
2022-08-18T00:41:09.007Z,-40.00
2022-08-18T00:42:09.050Z,-40.00
2022-08-18T00:43:09.097Z,-40.00
2022-08-18T00:44:09.136Z,-40.00
2022-08-18T00:45:09.177Z,-40.00
2022-08-18T00:46:09.214Z,-40.00
2022-08-18T00:47:09.261Z,-40.00
2022-08-18T00:48:09.305Z,-40.00
2022-08-18T00:49:09.346Z,-40.00
2022-08-18T00:50:09.391Z,-40.00
2022-08-18T00:51:09.428Z,-40.00
2022-08-18T00:52:09.471Z,-40.00
2022-08-18T00:53:09.513Z,-40.00
2022-08-18T00:54:09.556Z,-40.00
2022-08-18T00:55:09.602Z,-40.00
2022-08-18T00:56:11.390Z,-40.00
2022-08-18T00:57:09.681Z,-40.00
2022-08-18T00:58:09.728Z,-40.00
2022-08-18T00:59:09.768Z,-40.00
2022-08-18T01:00:09.815Z,-40.00
2022-08-18T01:01:09.981Z,-40.00
2022-08-18T01:02:09.891Z,-40.00
2022-08-18T01:03:09.931Z,-40.00
2022-08-18T01:04:09.970Z,-40.00
2022-08-18T01:05:10.010Z,-40.00
2022-08-18T01:06:10.039Z,-40.00
2022-08-18T01:07:10.074Z,-40.00
2022-08-18T01:08:10.104Z,-40.00
2022-08-18T01:09:10.140Z,-40.00
2022-08-18T01:10:10.177Z,-40.00
2022-08-18T01:11:10.208Z,-40.00
2022-08-18T01:12:28.025Z,-40.00
2022-08-18T01:13:11.293Z,-40.00
2022-08-18T01:14:10.326Z,-40.00
2022-08-18T01:15:10.350Z,-40.00
2022-08-18T01:16:11.400Z,-40.00
2022-08-18T01:17:10.429Z,-40.00
2022-08-18T01:18:10.464Z,-40.00
2022-08-18T01:19:10.499Z,-40.00
2022-08-18T01:20:10.538Z,-40.00
2022-08-18T01:21:10.573Z,-40.00
2022-08-18T01:22:10.609Z,-40.00
2022-08-18T01:23:10.647Z,-40.00
2022-08-18T01:24:10.681Z,-40.00
2022-08-18T01:25:10.714Z,-40.00
2022-08-18T01:26:10.752Z,-40.00
2022-08-18T01:27:10.791Z,-40.00
2022-08-18T01:28:10.816Z,-40.00
2022-08-18T01:29:10.849Z,-40.00
2022-08-18T01:30:10.878Z,-40.00
2022-08-18T01:31:10.908Z,-40.00
2022-08-18T01:32:10.939Z,-40.00
2022-08-18T01:33:10.966Z,-40.00
2022-08-18T01:34:10.998Z,-40.00
2022-08-18T01:35:11.026Z,-40.00
2022-08-18T01:36:11.056Z,-40.00
2022-08-18T01:37:11.086Z,-40.00
2022-08-18T01:38:11.115Z,-40.00
2022-08-18T01:39:11.150Z,-40.00
2022-08-18T01:41:25.254Z,-40.00
2022-08-18T01:41:26.676Z,-40.00
2022-08-18T01:42:11.317Z,-40.00
2022-08-18T01:43:11.271Z,-40.00
2022-08-18T01:44:11.307Z,-40.00
2022-08-18T01:45:11.341Z,-40.00
2022-08-18T01:46:11.373Z,-40.00
2022-08-18T01:47:11.408Z,-40.00
2022-08-18T01:48:11.435Z,-40.00
2022-08-18T01:49:11.464Z,-40.00
2022-08-18T01:50:11.644Z,-40.00
2022-08-18T01:51:11.522Z,-40.00
2022-08-18T01:52:11.553Z,-40.00
2022-08-18T01:53:11.593Z,-40.00
2022-08-18T01:54:11.630Z,-40.00
2022-08-18T01:55:11.649Z,-40.00
2022-08-18T01:56:11.680Z,-40.00
2022-08-18T01:57:11.718Z,-40.00
2022-08-18T01:58:11.752Z,-40.00
2022-08-18T01:59:11.784Z,-40.00
2022-08-18T02:00:12.468Z,-40.00
2022-08-18T02:01:11.858Z,-40.00
2022-08-18T02:02:12.350Z,-40.00
2022-08-18T02:03:11.915Z,-40.00
2022-08-18T02:04:33.935Z,-40.00
2022-08-18T02:05:11.973Z,-40.00
2022-08-18T02:06:12.005Z,-40.00
2022-08-18T02:07:12.035Z,-40.00
2022-08-18T02:08:12.066Z,-40.00
2022-08-18T02:09:12.093Z,-40.00
2022-08-18T02:10:12.587Z,-40.00
2022-08-18T02:11:12.151Z,-40.00
2022-08-18T02:12:12.177Z,-40.00
2022-08-18T02:13:12.199Z,-40.00
2022-08-18T02:14:12.223Z,-40.00
2022-08-18T02:15:12.244Z,-40.00
2022-08-18T02:16:12.263Z,-40.00
2022-08-18T02:17:12.289Z,-40.00
2022-08-18T02:18:12.307Z,-40.00
2022-08-18T02:19:12.332Z,-40.00
2022-08-18T02:20:12.358Z,-40.00
2022-08-18T02:21:12.383Z,-40.00
2022-08-18T02:22:12.403Z,-40.00
2022-08-18T02:23:12.427Z,-40.00
2022-08-18T02:24:12.453Z,-40.00
2022-08-18T02:25:12.475Z,-40.00
2022-08-18T02:26:12.508Z,-40.00
2022-08-18T02:27:12.538Z,-40.00
2022-08-18T02:28:12.554Z,-40.00
2022-08-18T02:29:12.586Z,-40.00
2022-08-18T02:30:12.612Z,-40.00
2022-08-18T02:31:12.637Z,-40.00
2022-08-18T02:32:12.663Z,-40.00
2022-08-18T02:33:12.690Z,-40.00
2022-08-18T02:34:12.715Z,-40.00
2022-08-18T02:35:12.747Z,-40.00
2022-08-18T02:36:12.787Z,-40.00
2022-08-18T02:37:15.304Z,-40.00
2022-08-18T02:38:12.828Z,-40.00
2022-08-18T02:39:12.856Z,-40.00
2022-08-18T02:40:15.467Z,-40.00
2022-08-18T02:41:12.910Z,-40.00
2022-08-18T02:42:12.941Z,-40.00
2022-08-18T02:43:12.967Z,-40.00
2022-08-18T02:44:13.000Z,-40.00
2022-08-18T02:45:13.033Z,-40.00
2022-08-18T02:46:13.061Z,-40.00
2022-08-18T02:47:13.089Z,-40.00
2022-08-18T02:48:13.117Z,-40.00
2022-08-18T02:49:13.153Z,-40.00
2022-08-18T02:50:13.179Z,-40.00
2022-08-18T02:51:13.205Z,-40.00
2022-08-18T02:52:13.236Z,-40.00
2022-08-18T02:53:13.263Z,-40.00
2022-08-18T02:54:13.292Z,-40.00
2022-08-18T02:55:13.326Z,-40.00
2022-08-18T02:56:13.353Z,-40.00
2022-08-18T02:57:13.384Z,-40.00
2022-08-18T02:58:13.423Z,-40.00
2022-08-18T02:59:13.452Z,-40.00
2022-08-18T03:00:13.484Z,-40.00
2022-08-18T03:01:13.551Z,-40.00
2022-08-18T03:02:13.553Z,-40.00
2022-08-18T03:03:13.583Z,-40.00
2022-08-18T03:04:13.612Z,-40.00
2022-08-18T03:05:14.497Z,-40.00
2022-08-18T03:06:13.683Z,-40.00
2022-08-18T03:07:13.718Z,-40.00
2022-08-18T03:08:13.752Z,-40.00
2022-08-18T03:09:13.782Z,-40.00
2022-08-18T03:10:32.308Z,-40.00
2022-08-18T03:11:13.840Z,-40.00
2022-08-18T03:12:13.870Z,-40.00
2022-08-18T03:13:13.906Z,-40.00
2022-08-18T03:14:13.936Z,-40.00
2022-08-18T03:15:13.971Z,-40.00
2022-08-18T03:16:13.999Z,-40.00
2022-08-18T03:17:14.038Z,-40.00
2022-08-18T03:18:14.070Z,-40.00
2022-08-18T03:19:14.109Z,-40.00
2022-08-18T03:20:14.147Z,-40.00
2022-08-18T03:21:14.176Z,-40.00
2022-08-18T03:22:27.286Z,-40.00
2022-08-18T03:23:14.249Z,-40.00
2022-08-18T03:24:19.334Z,-40.00
2022-08-18T03:25:15.324Z,-40.00
2022-08-18T03:26:14.346Z,-40.00
2022-08-18T03:27:14.380Z,-40.00
2022-08-18T03:28:14.403Z,-40.00
2022-08-18T03:29:14.435Z,-40.00
2022-08-18T03:30:14.466Z,-40.00
2022-08-18T03:31:14.501Z,-40.00
2022-08-18T03:32:14.531Z,-40.00
2022-08-18T03:33:14.562Z,-40.00
2022-08-18T03:34:14.590Z,-40.00
2022-08-18T03:35:14.624Z,-40.00
2022-08-18T03:36:14.653Z,-40.00
2022-08-18T03:37:14.681Z,-40.00
2022-08-18T03:38:14.715Z,-40.00
2022-08-18T03:39:14.750Z,-40.00
2022-08-18T03:40:14.843Z,-40.00
2022-08-18T03:41:14.818Z,-40.00
2022-08-18T03:42:14.855Z,-40.00
2022-08-18T03:43:23.692Z,-40.00
2022-08-18T03:44:15.940Z,-40.00
2022-08-18T03:45:17.786Z,-40.00
2022-08-18T03:46:15.005Z,-40.00
2022-08-18T03:47:15.033Z,-40.00
2022-08-18T03:48:15.066Z,-40.00
2022-08-18T03:49:15.099Z,-40.00
2022-08-18T03:50:15.133Z,-40.00
2022-08-18T03:51:15.149Z,-40.00
2022-08-18T03:52:15.180Z,-40.00
2022-08-18T03:53:15.215Z,-40.00
2022-08-18T03:54:15.242Z,-40.00
2022-08-18T03:55:15.271Z,-40.00
2022-08-18T03:56:15.303Z,-40.00
2022-08-18T03:57:15.330Z,-40.00
2022-08-18T03:58:15.356Z,-40.00
2022-08-18T03:59:15.382Z,-40.00
2022-08-18T04:00:15.407Z,-40.00
2022-08-18T04:01:15.525Z,-40.00
2022-08-18T04:02:15.456Z,-40.00
2022-08-18T04:03:15.484Z,-40.00
2022-08-18T04:04:15.509Z,-40.00
2022-08-18T04:05:15.536Z,-40.00
2022-08-18T04:06:15.563Z,-40.00
2022-08-18T04:07:16.603Z,-40.00
2022-08-18T04:08:15.618Z,-40.00
2022-08-18T04:09:15.647Z,-40.00
2022-08-18T04:10:19.179Z,-40.00
2022-08-18T04:11:15.707Z,-40.00
2022-08-18T04:12:17.040Z,-40.00
2022-08-18T04:13:15.776Z,-40.00
2022-08-18T04:14:15.812Z,-40.00
2022-08-18T04:15:15.847Z,-40.00
2022-08-18T04:16:15.877Z,-40.00
2022-08-18T04:17:15.909Z,-40.00
2022-08-18T04:18:15.942Z,-40.00
2022-08-18T04:19:26.874Z,-40.00
2022-08-18T04:20:16.008Z,-40.00
2022-08-18T04:21:16.039Z,-40.00
2022-08-18T04:22:17.145Z,-40.00
2022-08-18T04:23:16.099Z,-40.00
2022-08-18T04:24:16.126Z,-40.00
2022-08-18T04:25:16.158Z,-40.00
2022-08-18T04:26:19.156Z,-40.00
2022-08-18T04:27:16.223Z,-40.00
2022-08-18T04:28:16.256Z,-40.00
2022-08-18T04:29:16.298Z,-40.00
2022-08-18T04:30:16.330Z,-40.00
2022-08-18T04:31:16.360Z,-40.00
2022-08-18T04:32:16.393Z,-40.00
2022-08-18T04:33:16.425Z,-40.00
2022-08-18T04:34:16.451Z,-40.00
2022-08-18T04:35:16.482Z,-40.00
2022-08-18T04:36:20.554Z,-40.00
2022-08-18T04:37:16.562Z,-40.00
2022-08-18T04:38:16.552Z,-40.00
2022-08-18T04:39:16.581Z,-40.00
2022-08-18T04:40:20.227Z,-40.00
2022-08-18T04:41:16.638Z,-40.00
2022-08-18T04:42:16.669Z,-40.00
2022-08-18T04:43:16.704Z,-40.00
2022-08-18T04:44:16.733Z,-40.00
2022-08-18T04:45:16.765Z,-40.00
2022-08-18T04:46:16.793Z,-40.00
2022-08-18T04:47:16.823Z,-40.00
2022-08-18T04:48:16.849Z,-40.00
2022-08-18T04:49:16.877Z,-40.00
2022-08-18T04:50:16.908Z,-40.00
2022-08-18T04:52:33.996Z,-40.00
2022-08-18T04:52:34.441Z,-40.00
2022-08-18T04:53:18.051Z,-40.00
2022-08-18T04:54:17.029Z,-40.00
2022-08-18T04:55:17.078Z,-40.00
2022-08-18T04:56:17.102Z,-40.00
2022-08-18T04:57:17.133Z,-40.00
2022-08-18T04:58:17.167Z,-40.00
2022-08-18T04:59:17.186Z,-40.00
2022-08-18T05:00:17.211Z,-40.00
2022-08-18T05:01:17.280Z,-40.00
2022-08-18T05:02:17.264Z,-40.00
2022-08-18T05:03:17.292Z,-40.00
2022-08-18T05:04:17.344Z,-40.00
2022-08-18T05:05:17.348Z,-40.00
2022-08-18T05:06:17.377Z,-40.00
2022-08-18T05:07:17.404Z,-40.00
2022-08-18T05:08:17.433Z,-40.00
2022-08-18T05:09:23.002Z,-40.00
2022-08-18T05:10:17.528Z,-40.00
2022-08-18T05:11:17.524Z,-40.00
2022-08-18T05:12:17.545Z,-40.00
2022-08-18T05:13:17.567Z,-40.00
2022-08-18T05:14:17.597Z,-40.00
2022-08-18T05:15:17.623Z,-40.00
2022-08-18T05:16:27.636Z,-40.00
2022-08-18T05:17:17.719Z,-40.00
2022-08-18T05:18:17.701Z,-40.00
2022-08-18T05:19:19.294Z,-40.00
2022-08-18T05:20:18.149Z,-40.00
2022-08-18T05:21:17.785Z,-40.00
2022-08-18T05:22:17.844Z,-40.00
2022-08-18T05:23:17.859Z,-40.00
2022-08-18T05:24:17.861Z,-40.00
2022-08-18T05:25:17.887Z,-40.00
2022-08-18T05:26:17.916Z,-40.00
2022-08-18T05:27:17.940Z,-40.00
2022-08-18T05:28:18.002Z,-40.00
2022-08-18T05:29:19.710Z,-40.00
2022-08-18T05:30:18.083Z,-40.00
2022-08-18T05:31:18.103Z,-40.00
2022-08-18T05:32:30.400Z,-40.00
2022-08-18T05:33:18.101Z,-40.00
2022-08-18T05:34:18.186Z,-40.00
2022-08-18T05:35:18.212Z,-40.00
2022-08-18T05:36:18.235Z,-40.00
2022-08-18T05:37:18.213Z,-40.00
2022-08-18T05:38:18.278Z,-40.00
2022-08-18T05:39:18.307Z,-40.00
2022-08-18T05:40:18.409Z,-40.00
2022-08-18T05:41:18.351Z,-40.00
2022-08-18T05:42:18.380Z,-40.00
2022-08-18T05:43:18.402Z,-40.00
2022-08-18T05:44:18.423Z,-40.00
2022-08-18T05:45:18.455Z,-40.00
2022-08-18T05:46:18.487Z,-40.00
2022-08-18T05:47:18.507Z,-40.00
2022-08-18T05:48:18.532Z,-40.00
2022-08-18T05:49:18.566Z,-40.00
2022-08-18T05:50:18.591Z,-40.00
2022-08-18T05:51:18.607Z,-40.00
2022-08-18T05:52:18.629Z,-40.00
2022-08-18T05:53:20.592Z,-40.00
2022-08-18T05:54:18.674Z,-40.00
2022-08-18T05:55:18.718Z,-40.00
2022-08-18T05:56:18.726Z,-40.00
2022-08-18T05:57:18.753Z,-40.00
2022-08-18T05:58:18.778Z,-40.00
2022-08-18T05:59:18.770Z,-40.00
2022-08-18T06:00:18.834Z,-40.00
2022-08-18T06:01:18.859Z,-40.00
2022-08-18T06:02:18.882Z,-40.00
2022-08-18T06:03:18.928Z,-40.00
2022-08-18T06:04:18.877Z,-40.00
2022-08-18T06:05:18.954Z,-40.00
2022-08-18T06:06:18.987Z,-40.00
2022-08-18T06:07:19.009Z,-40.00
2022-08-18T06:08:19.038Z,-40.00
2022-08-18T06:09:19.061Z,-40.00
2022-08-18T06:10:19.086Z,-40.00
2022-08-18T06:11:22.702Z,-40.00
2022-08-18T06:12:19.144Z,-40.00
2022-08-18T06:13:19.166Z,-40.00
2022-08-18T06:14:19.193Z,-40.00
2022-08-18T06:15:19.219Z,-40.00
2022-08-18T06:16:19.249Z,-40.00
2022-08-18T06:17:19.271Z,-40.00
2022-08-18T06:18:19.294Z,-40.00
2022-08-18T06:19:19.262Z,-40.00
2022-08-18T06:20:19.299Z,-40.00
2022-08-18T06:21:19.334Z,-40.00
2022-08-18T06:22:19.348Z,-40.00
2022-08-18T06:23:19.417Z,-40.00
2022-08-18T06:24:19.395Z,-40.00
2022-08-18T06:25:19.441Z,-40.00
2022-08-18T06:26:19.445Z,-40.00
2022-08-18T06:27:19.586Z,-40.00
2022-08-18T06:28:19.487Z,-40.00
2022-08-18T06:29:19.513Z,-40.00
2022-08-18T06:30:19.587Z,-40.00
2022-08-18T06:31:19.595Z,-40.00
2022-08-18T06:32:19.640Z,-40.00
2022-08-18T06:33:19.664Z,-40.00
2022-08-18T06:34:19.690Z,-40.00
2022-08-18T06:35:19.673Z,-40.00
2022-08-18T06:36:19.741Z,-40.00
2022-08-18T06:37:19.759Z,-40.00
2022-08-18T06:38:19.779Z,-40.00
2022-08-18T06:39:19.747Z,-40.00
2022-08-18T06:40:19.889Z,-40.00
2022-08-18T06:41:41.486Z,-40.00
2022-08-18T06:42:19.835Z,-40.00
2022-08-18T06:43:19.837Z,-40.00
2022-08-18T06:44:19.896Z,-40.00
2022-08-18T06:45:19.914Z,-40.00
2022-08-18T06:46:19.915Z,-40.00
2022-08-18T06:47:19.936Z,-40.00
2022-08-18T06:48:19.950Z,-40.00
2022-08-18T06:49:19.961Z,-40.00
2022-08-18T06:50:19.970Z,-40.00
2022-08-18T06:51:19.983Z,-40.00
2022-08-18T06:52:19.961Z,-40.00
2022-08-18T06:53:27.184Z,-40.00
2022-08-18T06:54:20.014Z,-40.00
2022-08-18T06:55:20.020Z,-40.00
2022-08-18T06:56:25.921Z,-40.00
2022-08-18T06:57:21.031Z,-40.00
2022-08-18T06:58:19.991Z,-40.00
2022-08-18T06:59:20.005Z,-40.00
2022-08-18T07:00:20.035Z,-40.00
2022-08-18T07:01:20.092Z,-40.00
2022-08-18T07:02:20.028Z,-40.00
2022-08-18T07:03:20.035Z,-40.00
2022-08-18T07:04:20.097Z,-40.00
2022-08-18T07:05:20.113Z,-40.00
2022-08-18T07:06:20.099Z,-40.00
2022-08-18T07:07:20.105Z,-40.00
2022-08-18T07:08:20.072Z,-40.00
2022-08-18T07:09:20.067Z,-40.00
2022-08-18T07:10:20.100Z,-40.00
2022-08-18T07:11:20.053Z,-40.00
2022-08-18T07:12:20.047Z,-40.00
2022-08-18T07:13:20.058Z,-40.00
2022-08-18T07:14:20.060Z,-40.00
2022-08-18T07:15:20.083Z,-40.00
2022-08-18T07:16:34.253Z,-40.00
2022-08-18T07:17:20.142Z,-40.00
2022-08-18T07:18:20.099Z,-40.00
2022-08-18T07:19:20.118Z,-40.00
2022-08-18T07:20:20.118Z,-40.00
2022-08-18T07:21:20.142Z,-40.00
2022-08-18T07:22:20.137Z,-40.00
2022-08-18T07:23:21.191Z,-40.00
2022-08-18T07:24:25.119Z,-40.00
2022-08-18T07:25:20.147Z,-40.00
2022-08-18T07:26:20.150Z,-40.00
2022-08-18T07:27:20.163Z,-40.00
2022-08-18T07:28:20.169Z,-40.00
2022-08-18T07:29:20.176Z,-40.00
2022-08-18T07:30:20.203Z,-40.00
2022-08-18T07:31:20.204Z,-40.00
2022-08-18T07:32:21.569Z,-40.00
2022-08-18T07:33:20.196Z,-40.00
2022-08-18T07:34:26.204Z,-40.00
2022-08-18T07:35:20.212Z,-40.00
2022-08-18T07:36:20.205Z,-40.00
2022-08-18T07:37:22.867Z,-40.00
2022-08-18T07:38:41.378Z,-40.00
2022-08-18T07:39:20.205Z,-40.00
2022-08-18T07:40:20.273Z,-40.00
2022-08-18T07:41:20.199Z,-40.00
2022-08-18T07:42:37.356Z,-40.00
2022-08-18T07:43:21.224Z,-40.00
2022-08-18T07:44:20.211Z,-40.00
2022-08-18T07:45:23.806Z,-40.00
2022-08-18T07:46:20.196Z,-40.00
2022-08-18T07:47:20.195Z,-40.00
2022-08-18T07:48:37.757Z,-40.00
2022-08-18T07:49:22.474Z,-40.00
2022-08-18T07:50:36.204Z,-40.00
2022-08-18T07:51:21.201Z,-40.00
2022-08-18T07:52:36.379Z,-40.00
2022-08-18T07:53:20.176Z,-40.00
2022-08-18T07:54:45.363Z,-40.00
2022-08-18T07:55:21.179Z,-40.00
2022-08-18T07:56:20.157Z,-40.00
2022-08-18T07:57:20.639Z,-40.00
2022-08-18T07:58:20.138Z,-40.00
2022-08-18T07:59:20.126Z,-40.00
2022-08-18T08:00:35.037Z,-40.00
2022-08-18T08:01:20.223Z,-40.00
2022-08-18T08:02:20.208Z,-40.00
2022-08-18T08:03:20.097Z,-40.00
2022-08-18T08:04:25.296Z,-40.00
2022-08-18T08:05:20.095Z,-40.00
2022-08-18T08:06:20.086Z,-40.00
2022-08-18T08:07:24.294Z,-40.00
2022-08-18T08:08:25.018Z,-40.00
2022-08-18T08:09:20.074Z,-40.00
2022-08-18T08:10:20.072Z,-40.00
2022-08-18T08:11:20.072Z,-40.00
2022-08-18T08:12:20.067Z,-40.00
2022-08-18T08:13:43.779Z,-40.00
2022-08-18T08:14:26.154Z,-40.00
2022-08-18T08:15:26.618Z,-40.00
2022-08-18T08:16:21.073Z,-40.00
2022-08-18T08:17:20.061Z,-40.00
2022-08-18T08:18:20.053Z,-40.00
2022-08-18T08:19:31.478Z,-40.00
2022-08-18T08:20:21.064Z,-40.00
2022-08-18T08:21:20.036Z,-40.00
2022-08-18T08:22:20.029Z,-40.00
2022-08-18T08:23:20.018Z,-40.00
2022-08-18T08:24:20.007Z,-40.00
2022-08-18T08:25:42.683Z,-40.00
2022-08-18T08:26:19.984Z,-40.00
2022-08-18T08:27:19.972Z,-40.00
2022-08-18T08:28:19.977Z,-40.00
2022-08-18T08:29:19.953Z,-40.00
2022-08-18T08:30:20.009Z,-40.00
2022-08-18T08:31:36.554Z,-40.00
2022-08-18T08:32:20.918Z,-40.00
2022-08-18T08:33:19.884Z,-40.00
2022-08-18T08:34:19.865Z,-40.00
2022-08-18T08:35:49.362Z,-40.00
2022-08-18T08:36:19.833Z,-40.00
2022-08-18T08:37:19.822Z,-40.00
2022-08-18T08:38:40.078Z,-40.00
2022-08-18T08:39:20.772Z,-40.00
2022-08-18T08:40:19.844Z,-40.00
2022-08-18T08:41:19.704Z,-40.00
2022-08-18T08:42:30.155Z,-40.00
2022-08-18T08:43:20.692Z,-40.00
2022-08-18T08:44:19.622Z,-40.00
2022-08-18T08:45:19.608Z,-40.00
2022-08-18T08:46:19.571Z,-40.00
2022-08-18T08:47:21.846Z,-40.00
2022-08-18T08:48:19.514Z,-40.00
2022-08-18T08:49:19.499Z,-40.00
2022-08-18T08:50:19.551Z,-40.00
2022-08-18T08:51:19.470Z,-40.00
2022-08-18T08:52:19.396Z,-40.00
2022-08-18T08:53:19.406Z,-40.00
2022-08-18T08:54:19.379Z,-40.00
2022-08-18T08:55:19.318Z,-40.00
2022-08-18T08:56:19.322Z,-40.00
2022-08-18T08:57:19.251Z,-40.00
2022-08-18T08:58:19.225Z,-40.00
2022-08-18T08:59:19.179Z,-40.00
2022-08-18T09:00:19.187Z,-40.00
2022-08-18T09:01:19.162Z,-40.00
2022-08-18T09:02:44.690Z,-40.00
2022-08-18T09:03:30.298Z,-40.00
2022-08-18T09:14:18.881Z,25.01
2022-08-18T09:15:18.842Z,24.37
2022-08-18T09:16:18.802Z,23.85
2022-08-18T09:17:18.758Z,23.96
2022-08-18T09:18:18.710Z,24.34
2022-08-18T09:19:18.661Z,24.07
2022-08-18T09:20:18.598Z,23.17
2022-08-18T09:21:18.543Z,22.77
2022-08-18T09:22:18.469Z,22.65
2022-08-18T09:23:18.401Z,22.82
2022-08-18T09:24:18.331Z,23.56
2022-08-18T09:25:18.258Z,24.13
2022-08-18T09:26:18.178Z,24.53
2022-08-18T09:27:18.096Z,24.13
2022-08-18T09:28:18.009Z,24.27
2022-08-18T09:29:17.913Z,24.41
2022-08-18T09:30:17.824Z,24.31
2022-08-18T09:31:19.742Z,24.26
2022-08-18T09:32:17.632Z,23.97
2022-08-18T09:33:18.775Z,23.84
2022-08-18T09:34:17.442Z,24.49
2022-08-18T09:35:17.346Z,24.71
2022-08-18T09:36:18.441Z,24.32
2022-08-18T09:37:17.149Z,24.41
2022-08-18T09:38:20.419Z,24.47
2022-08-18T09:39:18.410Z,24.34
2022-08-18T09:40:17.041Z,24.12
2022-08-18T09:41:16.827Z,24.05
2022-08-18T09:42:16.666Z,24.10
2022-08-18T09:43:20.108Z,23.51
2022-08-18T09:44:21.360Z,23.52
2022-08-18T09:45:17.440Z,23.66
2022-08-18T09:46:16.282Z,23.46
2022-08-18T09:47:16.188Z,23.48
2022-08-18T09:48:25.121Z,23.49
2022-08-18T09:49:16.000Z,23.24
2022-08-18T09:50:27.097Z,23.15
2022-08-18T09:51:17.795Z,23.14
2022-08-18T09:52:15.735Z,23.14
2022-08-18T09:53:15.651Z,23.02
2022-08-18T09:54:21.476Z,22.77
2022-08-18T09:55:16.498Z,22.71
2022-08-18T09:56:15.408Z,22.68
2022-08-18T09:57:15.336Z,22.69
2022-08-18T09:58:15.260Z,22.46
2022-08-18T09:59:15.188Z,22.64
2022-08-18T10:00:15.190Z,22.68
2022-08-18T10:01:15.073Z,22.64
2022-08-18T10:02:20.235Z,22.67
2022-08-18T10:03:15.928Z,22.55
2022-08-18T10:04:14.852Z,22.53
2022-08-18T10:05:14.795Z,22.43
2022-08-18T10:06:14.738Z,22.37
2022-08-18T10:07:14.679Z,22.21
2022-08-18T10:08:14.618Z,22.31
2022-08-18T10:09:26.927Z,22.43
2022-08-18T10:11:00.806Z,22.43
2022-08-18T10:11:15.460Z,22.46
2022-08-18T10:12:15.751Z,22.55
2022-08-18T10:13:14.345Z,22.40
2022-08-18T10:14:14.316Z,22.08
2022-08-18T10:15:14.245Z,21.90
2022-08-18T10:16:14.192Z,22.01
2022-08-18T10:17:23.703Z,22.28
2022-08-18T10:18:15.105Z,22.51
2022-08-18T10:19:13.998Z,22.56
2022-08-18T10:20:26.476Z,22.40
2022-08-18T10:21:14.963Z,22.11
2022-08-18T10:22:13.898Z,22.16
2022-08-18T10:23:13.840Z,22.48
2022-08-18T10:24:35.166Z,22.65
2022-08-18T10:25:22.550Z,22.72
2022-08-18T10:26:15.031Z,22.59
2022-08-18T10:27:13.879Z,22.60
2022-08-18T10:28:13.556Z,22.90
2022-08-18T10:29:13.536Z,23.04
2022-08-18T10:30:13.497Z,23.15
2022-08-18T10:31:13.429Z,23.48
2022-08-18T10:32:14.265Z,23.70
2022-08-18T10:35:14.223Z,23.54
2022-08-18T10:36:13.141Z,23.30
2022-08-18T10:37:13.080Z,23.33
2022-08-18T10:38:12.998Z,23.42
2022-08-18T10:39:12.959Z,23.20
2022-08-18T10:40:13.054Z,23.12
2022-08-18T10:41:15.541Z,23.20
2022-08-18T10:42:14.873Z,22.84
2022-08-18T10:43:45.369Z,22.75
2022-08-18T10:45:16.101Z,22.53
2022-08-18T10:46:32.650Z,22.34
2022-08-18T10:47:13.465Z,22.43
2022-08-18T10:48:17.261Z,22.60
2022-08-18T10:49:12.325Z,22.67
2022-08-18T10:50:12.262Z,22.74
2022-08-18T10:51:12.197Z,22.71
2022-08-18T10:52:12.431Z,22.69
2022-08-18T10:53:39.014Z,22.96
2022-08-18T10:54:13.017Z,22.93
2022-08-18T10:55:11.949Z,22.87
2022-08-18T10:56:11.883Z,23.23
2022-08-18T10:57:11.815Z,23.17
2022-08-18T10:58:11.742Z,23.14
2022-08-18T10:59:16.309Z,23.29
2022-08-18T11:00:11.795Z,23.41
2022-08-18T11:01:11.544Z,23.71
2022-08-18T11:02:11.451Z,24.02
2022-08-18T11:03:42.217Z,-40.00
2022-08-18T11:05:12.240Z,23.64
2022-08-18T11:06:18.231Z,24.07
2022-08-18T11:07:12.078Z,24.19
2022-08-18T11:08:15.941Z,24.34
2022-08-18T11:09:10.898Z,24.89
2022-08-18T11:10:29.087Z,25.14
2022-08-18T11:11:40.128Z,25.23
2022-08-18T11:12:11.628Z,25.05
2022-08-18T11:13:10.599Z,25.21
2022-08-18T11:14:10.414Z,25.47
2022-08-18T11:15:22.788Z,25.46
2022-08-18T11:16:13.355Z,25.29
2022-08-18T11:17:10.101Z,25.16
2022-08-18T11:19:10.899Z,25.93
2022-08-18T11:20:09.818Z,25.62
2022-08-18T11:21:13.580Z,25.37
2022-08-18T11:22:11.022Z,25.42
2022-08-18T11:23:10.469Z,25.11
2022-08-18T11:24:09.895Z,25.09
2022-08-18T11:25:09.228Z,25.16
2022-08-18T11:26:09.119Z,25.37
2022-08-18T11:27:09.557Z,25.44
2022-08-18T11:28:08.898Z,25.69
2022-08-18T11:29:08.785Z,25.91
2022-08-18T11:30:08.729Z,25.72
2022-08-18T11:31:08.552Z,25.79
2022-08-18T11:32:11.172Z,25.97
2022-08-18T11:33:08.317Z,25.99
2022-08-18T11:34:08.193Z,26.20
2022-08-18T11:35:08.073Z,26.63
2022-08-18T11:36:07.952Z,26.73
2022-08-18T11:37:08.974Z,25.77
2022-08-18T11:38:07.700Z,25.37
2022-08-18T11:39:07.572Z,24.90
2022-08-18T11:40:07.444Z,24.54
2022-08-18T11:42:08.215Z,24.37
2022-08-18T11:43:08.094Z,24.49
2022-08-18T11:44:06.963Z,24.53
2022-08-18T11:45:06.846Z,24.60
2022-08-18T11:46:06.733Z,24.38
2022-08-18T11:47:06.622Z,24.44
2022-08-18T11:48:06.490Z,24.22
2022-08-18T11:49:06.399Z,23.97
2022-08-18T11:50:06.294Z,24.08
2022-08-18T11:51:06.184Z,23.85
2022-08-18T11:52:06.086Z,23.71
2022-08-18T11:53:05.968Z,24.04
2022-08-18T11:54:05.868Z,24.41
2022-08-18T11:55:15.280Z,24.68
2022-08-18T11:58:12.699Z,25.31
2022-08-18T11:59:05.469Z,25.30
2022-08-18T12:00:05.237Z,25.46
2022-08-18T12:01:05.127Z,25.27
2022-08-18T12:02:05.015Z,25.36
2022-08-18T12:03:04.913Z,25.18
2022-08-18T12:04:04.780Z,25.23
2022-08-18T12:05:10.286Z,25.19
2022-08-18T12:06:05.564Z,25.49
2022-08-18T12:07:04.747Z,25.77
2022-08-18T12:08:09.103Z,25.99
2022-08-18T12:09:05.211Z,26.01
2022-08-18T12:10:18.337Z,26.12
2022-08-18T12:11:27.237Z,26.24
2022-08-18T12:12:03.847Z,26.05
2022-08-18T12:13:03.730Z,25.53
2022-08-18T12:14:30.093Z,25.50
2022-08-18T12:15:13.729Z,25.97
2022-08-18T12:16:04.383Z,26.09
2022-08-18T12:17:03.243Z,26.09
2022-08-18T12:18:03.120Z,26.05
2022-08-18T12:19:03.025Z,26.08
2022-08-18T12:20:02.878Z,26.12
2022-08-18T12:21:03.221Z,26.27
2022-08-18T12:22:10.973Z,26.43
2022-08-18T12:23:02.657Z,26.63
2022-08-18T12:24:02.479Z,26.80
2022-08-18T12:25:02.254Z,26.78
2022-08-18T12:26:02.124Z,26.78
2022-08-18T12:27:01.999Z,26.80
2022-08-18T12:28:02.887Z,26.57
2022-08-18T12:29:01.899Z,26.38
2022-08-18T12:30:01.621Z,26.26
2022-08-18T12:31:01.495Z,26.45
2022-08-18T12:32:01.373Z,26.45
2022-08-18T12:33:08.124Z,26.19
2022-08-18T12:34:02.092Z,25.86
2022-08-18T12:35:07.182Z,25.64
2022-08-18T12:36:01.901Z,25.53
2022-08-18T12:37:00.710Z,-40.00
2022-08-18T12:38:05.074Z,25.50
2022-08-18T12:39:01.542Z,25.53
2022-08-18T12:40:00.513Z,25.49
2022-08-18T12:41:00.306Z,25.21
2022-08-18T12:42:00.205Z,25.18
2022-08-18T12:43:00.095Z,25.15
2022-08-18T12:43:59.989Z,25.26
2022-08-18T12:44:59.883Z,25.41
2022-08-18T12:45:59.781Z,-40.00
2022-08-18T12:46:59.849Z,-40.00
2022-08-18T12:47:59.578Z,25.79
2022-08-18T12:48:59.470Z,25.72
2022-08-18T12:49:59.369Z,25.68
2022-08-18T12:51:00.811Z,25.74
2022-08-18T12:51:59.154Z,26.01
2022-08-18T12:52:58.994Z,26.17